Extreme weather reports worldwide

Atmospheric pressure

Low pressure

Station
 
Location
 
Name
 
Wind
Knots
Gust
Knots
Vis
SM
Temp/Dew
C
Baro
inHg
METAR
 
NZSP AQ South Pole Station Airport 9 2.98 -62/ 28.21 NZSP 072350Z 07009KT 4800 IC BKN005 M62/ A2821 RMK CIG THN CLN AIR 06010KT ALL WNDS GRID
NZCM 6 6.21 -21/-30 28.90 NZCM 080055Z AUTO 11006KT 9999 CLR M21/M30 A2890 RMK AO2 SLP792 T12101301 $
KUS BGKK Kulusuk, GL Kulusuk Airport 3 6/5 29.35 BGKK 080050Z AUTO 09003KT 9999NDV -RA OVC009/// 06/05 Q0994
VOVZ 4 2.49 26/25 29.35 VOVZ 080030Z 30004KT 4000 -DZ BR FEW012 SCT016 OVC070 26/25 Q0994 TEMPO -RA
BBI VEBS Bhubaneswar, IN Biju Patnaik Airport 4 2.49 27/27 29.35 VEBS 080030Z 03004KT 4000 HZ SCT018 BKN100 27/27 Q0994 NOSIG

Station
 
Location
 
Name
 
Wind
Knots
Gust
Knots
Vis
SM
Temp/Dew
C
Baro
inHg
METAR
 
DHA OEDR SA King Abdulaziz Air Base 0 4.97 31/30 29.35 OEDR 080000Z 00000KT 8000 NSC 31/30 Q0994
KKA PAKK Koyuk, US Koyuk Alfred Adams Airport 6 2.5 8/8 29.38 PAKK 080049Z AUTO 09006KT 2 1/2SM -RA BR BKN009 OVC015 08/08 A2938 RMK AO2 CIG 006V011 P0002
AUH OMAA Abu Dhabi, AE Abu Dhabi International Airport 5 6.21 34/20 29.38 OMAA 080044Z 05005KT CAVOK 34/20 Q0995 BECMG 12006KT
DOH OTHH Doha, QA Hamad International Airport 5 6.21 35/26 29.38 OTHH 080000Z 14005KT CAVOK 35/26 Q0995 NOSIG
BSR ORMM Basrah, IQ Basrah International Airport 6 4.35 34/27 29.38 ORMM 080000Z 20006KT 7000 NSC 34/27 Q0995 NOSIG
SKZ OPSK Mirpur Khas, PK Sukkur Airport 0 2.49 30/26 29.38 OPSK 080000Z 00000KT 4000 HZ SCT040 SCT100 30/26 Q0995 NOSIG
DXB OMDB Dubai, AE Dubai International Airport 3 6.21 38/20 29.38 OMDB 080000Z 02003KT CAVOK 38/20 Q0995 NOSIG
JSK OIZJ Jask, IR Jask Airport 8 3.73 30/28 29.38 OIZJ 080000Z 12008KT 6000 NSC 30/28 Q0995
OIKQ IR Dayrestan Airport 4 2.49 31/29 29.38 OIKQ 080000Z 10004KT 4000 BR NSC 31/29 Q0995
KHK OIBQ IR Khark Island Airport 0 1.86 33/31 29.38 OIBQ 080000Z 00000KT 3000 BR NSC 33/31 Q0995 A2940
BDH OIBL Bandar Lengeh, IR Bandar Lengeh Airport 6 2.49 33/28 29.38 OIBL 080000Z 07006KT 4000 HZ NSC 33/28 Q0995
KIH OIBK Kish Island, IR Kish International Airport 10 3.73 31/27 29.38 OIBK 080000Z 11010KT 6000 NSC 31/27 Q0995
BUZ OIBB Bushehr, IR Bushehr Airport 6 1.86 33/27 29.38 OIBB 080000Z 13006KT 3000 HZ NSC 33/27 Q0995 A2940
AWZ OIAW Ahwaz, IR Ahwaz Airport 2 2.49 36/21 29.38 OIAW 080000Z 32002KT 4000 HZ NSC 36/21 Q0995
MRX OIAM IR Mahshahr Airport 4 1.55 34/30 29.38 OIAM 080000Z 12004KT 2500 BR NSC 34/30 Q0995
ABD OIAA Abadan, IR Abadan Airport 6 3.11 34/29 29.38 OIAA 080000Z 23006KT 5000 HZ NSC 34/29 Q0995
DMM OEDF Ad Dammam, SA King Fahd International Airport 4 4.35 32/28 29.38 OEDF 080000Z 15004KT 7000 NSC 32/28 Q0995 NOSIG
SKK PFSH Shaktoolik, US Shaktoolik Airport 21 27 6 11/11 29.39 PFSH 080054Z AUTO 20021G27KT 6SM -RA BR BKN006 BKN010 OVC017 11/11 A2939 RMK AO2 PK WND 20028/0047 P0000
ELI PFEL Elim, US Elim Airport 8 3 9/8 29.39 PFEL 080041Z AUTO 07008KT 3SM -RA BR OVC003 09/08 A2939 RMK AO2 CIG 002V008 P0001
GLV PAGL Golovin, US Golovin Airport 6 7 10/8 29.39 PAGL 080026Z AUTO 10006KT 7SM OVC012 10/08 A2939 RMK AO2 PWINO $
WMO PAWM White Mountain, US White Mountain Airport 3 6 9/8 29.40 PAWM 080032Z AUTO 12003KT 6SM -RA BR BKN012 OVC018 09/08 A2940 RMK AO2 RAB2359 PNO $
OME PAOM Nome, US Nome Airport 4 10 10/6 29.41 PAOM 080053Z 26004KT 10SM FEW015 BKN037 OVC055 10/07 A2941 RMK AO2 RAE38 CIG 014 NE SLP958 P0002 T01000067 $
UAK BGBW Narsarsuaq, GL Narsarsuaq Airport 4 6/2 29.41 BGBW 080050Z AUTO 07004KT 9999NDV FEW120/// 06/02 Q0996
AZI OMAD AE Bateen Airport 12 6.21 34/24 29.41 OMAD 080033Z 27012KT CAVOK 34/24 Q0996 NOSIG
RJA VORY Rajahmundry, IN Rajahmundry Airport 10 1.86 26/25 29.41 VORY 080030Z 25010KT 3000 -DZ SCT016 OVC080 26/25 Q0996 NOSIG
PAT VEPT Patna, IN Lok Nayak Jayaprakash Airport 4 1.86 29/27 29.41 VEPT 080030Z 12004KT 3000 BR FEW100 29/27 Q0996 NOSIG
KHV UHHH Khabarovsk, RU Khabarovsk-Novy Airport 10 6.21 23/21 29.41 UHHH 080030Z 22005MPS 9999 SCT012 BKN020CB 23/21 Q0996 R23R/090060 NOSIG RMK QFE741/0988
BQS UHBB Blagoveschensk, RU Ignatyevo Airport 12 6.21 18/11 29.41 UHBB 080030Z 26006MPS 9999 SCT033 18/11 Q0996 R36/090060 NOSIG RMK QFE730/0973
DIA OTBD Doha, QA Doha International Airport 6 6.21 33/28 29.41 OTBD 080030Z 16006KT CAVOK 33/28 Q0996 NOSIG
BAH OBBI Manama, BH Bahrain International Airport 3 5.59 33/28 29.41 OBBI 080030Z 09003KT 9000 NSC 33/28 Q0996 NOSIG
WNS OPNH Nawabashah, PK Shaheed Benazirabad Airport 2 3.11 28/25 29.41 OPNH 080000Z 36002KT 5000 FU SCT035 SCT100 28/25 Q0996 TEMPO TSDZ FEWCB025
SHJ OMSJ Sharjah, AE Sharjah International Airport 5 6.21 33/19 29.41 OMSJ 080000Z 05005KT CAVOK 33/19 Q0996 NOSIG
RKT OMRK Ras Al Khaimah, AE Ras Al Khaimah International Airport 2 4.97 32/22 29.41 OMRK 080000Z 08002KT 8000 NSC 32/22 Q0996 A2941
FJR OMFJ AE Fujairah International Airport 2 3.11 32/28 29.41 OMFJ 080000Z 15002KT 5000 HZ BKN015 32/28 Q0996 A2943
DWC OMDW Jebel Ali, AE Al Maktoum International Airport 7 6.21 33/21 29.41 OMDW 080000Z 02007KT CAVOK 33/21 Q0996 NOSIG
KWI OKBK Kuwait City, KW Kuwait International Airport 5 3.73 35/30 29.41 OKBK 080000Z 17005KT 6000 NSC 35/30 Q0996 NOSIG
BND OIKB Bandar Abbas, IR Bandar Abbas International Airport 2 2.49 30/27 29.41 OIKB 080000Z VRB02KT 4000 BR NSC 30/27 Q0996 A2943
SXI OIBS IR Sirri Island Airport 4 1.55 32/29 29.41 OIBS 080000Z 03004KT 2500 BR NSC 32/29 Q0996
QJB OEJB Jubail, SA Jubail Airport 8 3.11 33/30 29.41 OEJB 080000Z AUTO 09008KT 5000 NSC 33/30 Q0996 NOSIG
HOF OEAH SA Al Ahsa Airport 0 6.21 33/27 29.41 OEAH 080000Z 00000KT CAVOK 33/27 Q0996 NOSIG
MCT OOMS Muscat, OM Muscat International Airport 5 4.97 31/27 29.41 OOMS 072350Z 03005KT 8000 NSC 31/27 Q0996 NOSIG 05RMK RH78? 05
KHS OOKB Khasab, OM Khasab Air Base 6 6.21 37/22 29.41 OOKB 072350Z AUTO 19006KT CAVOK ////// 37/22 Q0996 NOSIG
TLA PATE Teller, US Teller Airport 4 10 9/6 29.42 PATE 080051Z AUTO 15004KT 10SM -RA FEW017 SCT024 OVC033 09/06 A2942 RMK AO2 P0001
DRG PADE Deering, US Deering Airport 14 8 9/7 29.43 PADE 080053Z AUTO 11014KT 8SM -RA FEW020 SCT028 OVC048 09/07 A2943 RMK AO2 SLP967 P0005 T00940072 TSNO $
YRF CYCA Cartwright, CA Cartwright Airport 13 21 9 18/9 29.43 CYCA 080000Z AUTO 26013G21KT 9SM CLR 18/09 A2943 RMK SLP967 DENSITY ALT 1100FT

High pressure

Station
 
Location
 
Name
 
Wind
Knots
Gust
Knots
Vis
SM
Temp/Dew
C
Baro
inHg
METAR
 
KCPW 3 10 10/3 30.77 KCPW 080035Z AUTO 23003KT 10SM OVC065 10/03 A3077 RMK AO2 LTG DSNT E THRU SW
K0CO 12 0.25 7/7 30.75 K0CO 080035Z AUTO 13012KT M1/4SM FG OVC002 07/07 A3075 RMK AO2
KCCU 11 16 10 16/0 30.72 KCCU 080035Z AUTO 29011G16KT 10SM SCT085 16/00 A3072 RMK AO2
K4BM 15 22 10 12/5 30.68 K4BM 080035Z AUTO 34015G22KT 10SM VCTS OVC060 12/05 A3068 RMK AO2 LTG DSNT NE AND SE
KC99 3 5 11/10 30.65 KC99 080033Z AUTO 15003KT 5SM VCTS BKN003 OVC010 11/10 A3065 RMK AO2 LTG DSNT E AND S

Station
 
Location
 
Name
 
Wind
Knots
Gust
Knots
Vis
SM
Temp/Dew
C
Baro
inHg
METAR
 
K5SM 4 10 17/2 30.63 K5SM 080035Z AUTO 27004KT 10SM CLR 17/02 A3063 RMK AO2
KC07 5 10 17/5 30.62 KC07 080035Z AUTO 31005KT 10SM CLR 17/05 A3062 RMK AO2
KVTP 7 10 13/7 30.58 KVTP 080035Z AUTO 09007KT 10SM BKN080 OVC100 13/07 A3058 RMK AO2
K7BM 0 10 20/4 30.55 K7BM 080035Z AUTO 00000KT 10SM SCT085 BKN120 20/04 A3055 RMK AO2 LTG DSNT NE THRU S
LXV KLXV Leadville, US Lake County Airport 4 10 16/7 30.54 KLXV 080053Z AUTO 12004KT 10SM -RA BKN070 OVC095 17/07 A3054 RMK AO2 LTG DSNT E RAB32 SLP181 P0000 T01670072
MPN EGYP Mount Pleasant, FK Mount Pleasant Airport 8 6.21 -1/-1 30.53 EGYP 072350Z 28008KT 9999 FEW003 M01/M01 Q1034
LPB SLLP La Paz / El Alto, BO El Alto International Airport 5 6.21 8/-9 30.53 SLLP 080000Z 32005KT 290V360 9999 FEW013 SCT070 BKN200 08/M09 Q1034
LIMH IT Pian Rosà 13 1/-3 30.47 LIMH 072355Z AUTO 05013KT //// 01/M03 Q1032
CRD SAVC Comodoro Rivadavia, AR General E. Mosconi Airport 6 6.21 5/3 30.47 SAVC 080000Z 02006KT 9999 -RADZ SCT012 BKN015 OVC040 05/03 Q1032 RMK PP999
AXX KAXX Angel Fire, US Angel Fire Airport 4 10 17/10 30.46 KAXX 080035Z AUTO 04004KT 10SM SCT120 17/11 A3046 RMK AO2 T01720105
TEX KTEX Telluride, US Telluride Regional Airport 5 10 22/2 30.46 KTEX 080035Z AUTO 14005KT 10SM SCT070 SCT085 BKN110 22/02 A3046 RMK AO2
KP60 4 17/6 30.44 KP60 072356Z AUTO VRB04KT 18/06 A3044 RMK AO1 SLP245 T01780061 10200 20144 55001
SLT KANK Salida, US Salida Airport Harriett Alexander Field 11 18 10 / 30.42 KANK 080035Z AUTO 12011G18KT 10SM BKN120 A3042 RMK AO1
RGA SAWE Rio Grande, AR Hermes Quijada International Airport 3 6.21 0/0 30.41 SAWE 080000Z 29003KT 270V340 9999 SCT012 BKN023 00/00 Q1030 RMK PP000
CUZ SPZO Cusco, PE Alejandro Velasco Astete International Airport 7 6.21 10/5 30.41 SPZO 080030Z 09007KT 060V120 9999 SCT046 SCT100 10/05 Q1030 NOSIG RMK BIRD HAZARD RWY 10/28
K33V 13 10 22/6 30.41 K33V 080035Z AUTO 34013KT 10SM CLR 22/06 A3041 RMK AO1
PGO KPSO Pagosa Springs, US Stevens Field 5 10 19/10 30.41 KPSO 080035Z AUTO 33005KT 10SM SCT100 19/10 A3041 RMK AO2 LTG DSNT S T01910103
KRCV 15 22 10 19/8 30.40 KRCV 080035Z AUTO 24015G22KT 10SM SCT110 19/09 A3040 RMK AO2 T01910088
EMM KEMM Kemmerer, US Kemmerer Municipal Airport 9 21 10 23/-1 30.39 KEMM 080035Z AUTO 28009G21KT 250V310 10SM CLR 23/M01 A3039 RMK AO2
FBR KFBR Fort Bridger, US Fort Bridger Airport 10 14 10 25/1 30.39 KFBR 080035Z AUTO 30010G14KT 10SM CLR 26/01 A3039 RMK AO2 T02580011
WAP SCAP Alto Palena, CL Alto Palena Airport 1 6.21 4/1 30.38 SCAP 080000Z AUTO VRB01KT 9999 ////// 04/01 Q1029
K04V 9 10 18/9 30.38 K04V 080035Z AUTO 07009KT 10SM 18/09 A3038 RMK AO2 LTG DSNT E AND S PWINO
KAEJ Buena Vista, US Central Colorado Regional Airport 4 18 10 23/5 30.38 KAEJ 080035Z AUTO 01004G18KT 10SM -RA 23/06 A3038 RMK AO2 T02310055
KGNB Granby, US Granby Grand County Airport 3 10 22/7 30.38 KGNB 080035Z AUTO 35003KT 10SM BKN110 22/07 A3038 RMK AO2 T02220074
KMNH 5 10 20/13 30.38 KMNH 080035Z AUTO 04005KT 10SM BKN120 20/13 A3038 RMK AO2
TLC MMTO Toluca, MX Licenciado Adolfo Lopez Mateos International Airport 7 4 13/11 30.37 MMTO 080014Z 12007KT 4SM -TSRA BKN020CB OVC070 13/11 A3037 RMK 8/96/ -TSRAB10
PWY KPNA Pinedale, US Ralph Wenz Field 12 10 22/2 30.37 KPNA 080035Z AUTO 32012KT 10SM CLR 22/02 A3037 RMK AO2
EVW KEVW Evanston, US Evanston-Uinta County Airport-Burns Field 8 10 23/3 30.37 KEVW 080053Z AUTO 31008KT 10SM CLR 24/03 A3037 RMK AO2 SLP197 T02390033 $
KFLY 7 10 22/13 30.36 KFLY 080035Z AUTO 06007KT 10SM BKN110 23/14 A3036 RMK AO2 T02250137
HKGO 5 13/12 30.35 HKGO 080000Z AUTO 10005KT 13/12 Q1028 A30.36
RGL SAWG Rio Gallegos, AR Piloto Civil N. Fernández Airport 13 6.21 3/0 30.35 SAWG 080000Z 02013KT 9999 OVC025 03/00 Q1028
MDQ SAZM Mar del Plata, AR Ástor Piazzola International Airport 10 6.21 6/4 30.35 SAZM 080000Z 14010KT 9999 OVC020 06/04 Q1028 RMK PP///
NQN SAZN Neuquen, AR Presidente Peron Airport 4 6.21 5/3 30.35 SAZN 080000Z 14004KT 9999 SCT010 SCT018 OVC040 05/03 Q1028
ORK EICK Cork, IE Cork Airport 8 6.21 14/11 30.35 EICK 080030Z 32008KT 9999 FEW039 14/11 Q1028 NOSIG
SNN EINN Shannon, IE Shannon Airport 2 6.21 12/11 30.35 EINN 080030Z 05002KT 9999 R24/1500U R06/P2000 MIFG FEW030 12/11 Q1028 TEMPO 4000
KDIJ Driggs, US Driggs Reed Memorial Airport 0 10 23/7 30.35 KDIJ 072356Z AUTO 00000KT 10SM CLR 24/08 A3035 RMK AO2 SLP221 T02390078 10250 20200 57009
TSM KSKX Taos, US Taos Regional Airport 4 10 20/12 30.35 KSKX 072356Z AUTO 03004KT 10SM -RA BKN090 OVC110 20/13 A3035 RMK AO2 LTG DSNT S AND NW TSE09RAB20E35B54 SLP222 P0000 60000 T02000128 10289 20189 51005
KCMR Williams, US H.A. Clark Memorial Field 8 10 20/14 30.35 KCMR 080035Z AUTO 25008KT 10SM FEW120 20/14 A3035 RMK AO2
KDUB 12 10 22/0 30.35 KDUB 080035Z AUTO 32012KT 10SM CLR 22/00 A3035 RMK AO2
BCE KBCE Bryce Canyon, US Bryce Canyon Airport 11 10 27/1 30.35 KBCE 080053Z AUTO 31011KT 10SM BKN100 27/02 A3035 RMK AO2 SLP150 T02720017
BPI KBPI Big Piney, US Miley Memorial Field 9 10 23/3 30.35 KBPI 080053Z AUTO 02009KT 10SM CLR 24/04 A3035 RMK AO2 SLP188 T02390039
LAR KLAR Laramie, US Laramie Regional Airport 11 10 20/11 30.35 KLAR 080053Z AUTO 13011KT 10SM FEW100 21/11 A3035 RMK AO2 SLP176 T02060111
JAC KJAC Jackson, US Jackson Hole Airport 0 10 23/6 30.34 KJAC 072356Z 00000KT 10SM CLR 23/06 A3034 RMK AO2 SLP219 T02330061 10239 20150 56010
FLG KFLG Flagstaff, US Flagstaff Pulliam Airport 3 10 19/14 30.34 KFLG 072357Z 34003KT 10SM SCT120 19/14 A3034 RMK AO2 SLP184 60001 T01940144 10256 20172 58006
KJTC 11 10 20/14 30.34 KJTC 080035Z AUTO 23011KT 10SM BKN110 20/14 A3034 RMK AO2 LTG DSNT W AND NW